sensor_id;sensor_type;location;lat;lon;timestamp;P1;durP1;ratioP1;P2;durP2;ratioP2
10082;SDS011;5080;48.528;8.078;2022-12-20T00:01:16;0.93;;;0.93;;
10082;SDS011;5080;48.528;8.078;2022-12-20T00:03:47;0.70;;;0.70;;
10082;SDS011;5080;48.528;8.078;2022-12-20T00:06:15;0.53;;;0.53;;
10082;SDS011;5080;48.528;8.078;2022-12-20T00:08:43;0.70;;;0.70;;
10082;SDS011;5080;48.528;8.078;2022-12-20T00:11:10;0.70;;;0.70;;
10082;SDS011;5080;48.528;8.078;2022-12-20T00:13:37;0.90;;;0.90;;
10082;SDS011;5080;48.528;8.078;2022-12-20T00:16:05;0.67;;;0.67;;
10082;SDS011;5080;48.528;8.078;2022-12-20T00:18:34;0.70;;;0.70;;
10082;SDS011;5080;48.528;8.078;2022-12-20T00:21:04;0.77;;;0.77;;
10082;SDS011;5080;48.528;8.078;2022-12-20T00:23:32;0.90;;;0.90;;
10082;SDS011;5080;48.528;8.078;2022-12-20T00:26:00;0.70;;;0.70;;
10082;SDS011;5080;48.528;8.078;2022-12-20T00:28:28;0.60;;;0.60;;
10082;SDS011;5080;48.528;8.078;2022-12-20T00:30:55;0.80;;;0.80;;
10082;SDS011;5080;48.528;8.078;2022-12-20T00:33:22;0.73;;;0.70;;
10082;SDS011;5080;48.528;8.078;2022-12-20T00:35:49;0.77;;;0.77;;
10082;SDS011;5080;48.528;8.078;2022-12-20T00:38:17;0.70;;;0.70;;
10082;SDS011;5080;48.528;8.078;2022-12-20T00:40:44;0.70;;;0.70;;
10082;SDS011;5080;48.528;8.078;2022-12-20T00:43:11;0.77;;;0.77;;
10082;SDS011;5080;48.528;8.078;2022-12-20T00:45:38;0.70;;;0.70;;
10082;SDS011;5080;48.528;8.078;2022-12-20T00:48:04;0.53;;;0.53;;
10082;SDS011;5080;48.528;8.078;2022-12-20T00:50:31;0.70;;;0.70;;
10082;SDS011;5080;48.528;8.078;2022-12-20T00:52:58;0.70;;;0.70;;
10082;SDS011;5080;48.528;8.078;2022-12-20T00:55:26;0.60;;;0.60;;
10082;SDS011;5080;48.528;8.078;2022-12-20T00:57:53;0.80;;;0.80;;
10082;SDS011;5080;48.528;8.078;2022-12-20T01:00:20;0.83;;;0.80;;
10082;SDS011;5080;48.528;8.078;2022-12-20T01:02:47;0.87;;;0.87;;
10082;SDS011;5080;48.528;8.078;2022-12-20T01:05:14;0.70;;;0.70;;
10082;SDS011;5080;48.528;8.078;2022-12-20T01:07:41;0.80;;;0.80;;
10082;SDS011;5080;48.528;8.078;2022-12-20T01:10:08;0.50;;;0.50;;
10082;SDS011;5080;48.528;8.078;2022-12-20T01:12:37;0.60;;;0.60;;
10082;SDS011;5080;48.528;8.078;2022-12-20T01:15:04;0.67;;;0.67;;
10082;SDS011;5080;48.528;8.078;2022-12-20T01:17:32;0.70;;;0.70;;
10082;SDS011;5080;48.528;8.078;2022-12-20T01:19:59;0.70;;;0.70;;
10082;SDS011;5080;48.528;8.078;2022-12-20T01:22:26;0.63;;;0.63;;
10082;SDS011;5080;48.528;8.078;2022-12-20T01:24:53;0.57;;;0.57;;
10082;SDS011;5080;48.528;8.078;2022-12-20T01:27:20;0.70;;;0.70;;
10082;SDS011;5080;48.528;8.078;2022-12-20T01:29:48;0.70;;;0.70;;
10082;SDS011;5080;48.528;8.078;2022-12-20T01:32:15;0.80;;;0.80;;
10082;SDS011;5080;48.528;8.078;2022-12-20T01:34:42;0.67;;;0.67;;
10082;SDS011;5080;48.528;8.078;2022-12-20T01:37:09;0.60;;;0.60;;
10082;SDS011;5080;48.528;8.078;2022-12-20T01:39:36;0.60;;;0.60;;
10082;SDS011;5080;48.528;8.078;2022-12-20T01:42:02;0.40;;;0.40;;
10082;SDS011;5080;48.528;8.078;2022-12-20T01:47:19;0.77;;;0.77;;
10082;SDS011;5080;48.528;8.078;2022-12-20T01:49:46;0.70;;;0.70;;
10082;SDS011;5080;48.528;8.078;2022-12-20T01:52:16;0.80;;;0.80;;
10082;SDS011;5080;48.528;8.078;2022-12-20T01:54:46;1.00;;;0.70;;
10082;SDS011;5080;48.528;8.078;2022-12-20T01:57:16;0.97;;;0.60;;
10082;SDS011;5080;48.528;8.078;2022-12-20T01:59:46;0.70;;;0.70;;
10082;SDS011;5080;48.528;8.078;2022-12-20T02:02:16;0.80;;;0.80;;
10082;SDS011;5080;48.528;8.078;2022-12-20T02:04:43;0.57;;;0.57;;
10082;SDS011;5080;48.528;8.078;2022-12-20T02:07:10;0.60;;;0.60;;
10082;SDS011;5080;48.528;8.078;2022-12-20T02:09:41;0.63;;;0.63;;
10082;SDS011;5080;48.528;8.078;2022-12-20T02:12:09;0.60;;;0.60;;
10082;SDS011;5080;48.528;8.078;2022-12-20T02:14:46;0.70;;;0.70;;
10082;SDS011;5080;48.528;8.078;2022-12-20T02:17:27;0.57;;;0.57;;
10082;SDS011;5080;48.528;8.078;2022-12-20T02:23:15;0.40;;;0.40;;
10082;SDS011;5080;48.528;8.078;2022-12-20T02:26:16;0.70;;;0.70;;
10082;SDS011;5080;48.528;8.078;2022-12-20T02:29:06;0.60;;;0.60;;
10082;SDS011;5080;48.528;8.078;2022-12-20T02:31:46;0.40;;;0.40;;
10082;SDS011;5080;48.528;8.078;2022-12-20T02:34:16;0.50;;;0.50;;
10082;SDS011;5080;48.528;8.078;2022-12-20T02:36:45;0.60;;;0.60;;
10082;SDS011;5080;48.528;8.078;2022-12-20T02:39:12;0.60;;;0.60;;
10082;SDS011;5080;48.528;8.078;2022-12-20T02:41:42;0.60;;;0.60;;
10082;SDS011;5080;48.528;8.078;2022-12-20T02:44:14;0.63;;;0.63;;
10082;SDS011;5080;48.528;8.078;2022-12-20T02:47:17;0.67;;;0.67;;
10082;SDS011;5080;48.528;8.078;2022-12-20T02:49:47;0.80;;;0.80;;
10082;SDS011;5080;48.528;8.078;2022-12-20T02:52:16;0.60;;;0.60;;
10082;SDS011;5080;48.528;8.078;2022-12-20T02:54:45;0.60;;;0.60;;
10082;SDS011;5080;48.528;8.078;2022-12-20T02:57:13;0.80;;;0.80;;
10082;SDS011;5080;48.528;8.078;2022-12-20T02:59:48;0.60;;;0.60;;
10082;SDS011;5080;48.528;8.078;2022-12-20T03:02:20;0.37;;;0.37;;
10082;SDS011;5080;48.528;8.078;2022-12-20T03:04:48;0.70;;;0.70;;
10082;SDS011;5080;48.528;8.078;2022-12-20T03:07:14;0.60;;;0.60;;
10082;SDS011;5080;48.528;8.078;2022-12-20T03:09:42;0.50;;;0.50;;
10082;SDS011;5080;48.528;8.078;2022-12-20T03:12:10;0.60;;;0.60;;
10082;SDS011;5080;48.528;8.078;2022-12-20T03:14:38;0.53;;;0.53;;
10082;SDS011;5080;48.528;8.078;2022-12-20T03:17:05;0.50;;;0.50;;
10082;SDS011;5080;48.528;8.078;2022-12-20T03:19:34;0.60;;;0.60;;
10082;SDS011;5080;48.528;8.078;2022-12-20T03:22:01;0.50;;;0.50;;
10082;SDS011;5080;48.528;8.078;2022-12-20T03:24:28;1.33;;;0.90;;
10082;SDS011;5080;48.528;8.078;2022-12-20T03:26:54;0.80;;;0.80;;
10082;SDS011;5080;48.528;8.078;2022-12-20T03:29:21;0.87;;;0.87;;
10082;SDS011;5080;48.528;8.078;2022-12-20T03:31:48;0.70;;;0.70;;
10082;SDS011;5080;48.528;8.078;2022-12-20T03:34:15;0.60;;;0.60;;
10082;SDS011;5080;48.528;8.078;2022-12-20T03:36:43;0.60;;;0.60;;
10082;SDS011;5080;48.528;8.078;2022-12-20T03:39:10;0.70;;;0.70;;
10082;SDS011;5080;48.528;8.078;2022-12-20T03:41:37;0.83;;;0.80;;
10082;SDS011;5080;48.528;8.078;2022-12-20T03:44:03;0.50;;;0.50;;
10082;SDS011;5080;48.528;8.078;2022-12-20T03:46:30;0.60;;;0.60;;
10082;SDS011;5080;48.528;8.078;2022-12-20T03:48:57;0.60;;;0.60;;
10082;SDS011;5080;48.528;8.078;2022-12-20T03:51:24;0.53;;;0.53;;
10082;SDS011;5080;48.528;8.078;2022-12-20T03:53:52;1.10;;;0.93;;
10082;SDS011;5080;48.528;8.078;2022-12-20T03:56:19;0.70;;;0.70;;
10082;SDS011;5080;48.528;8.078;2022-12-20T03:58:46;0.80;;;0.80;;
10082;SDS011;5080;48.528;8.078;2022-12-20T04:01:20;0.70;;;0.70;;
10082;SDS011;5080;48.528;8.078;2022-12-20T04:03:48;0.70;;;0.70;;
10082;SDS011;5080;48.528;8.078;2022-12-20T04:06:15;0.63;;;0.63;;
10082;SDS011;5080;48.528;8.078;2022-12-20T04:08:43;0.70;;;0.70;;
10082;SDS011;5080;48.528;8.078;2022-12-20T04:11:11;0.70;;;0.70;;
10082;SDS011;5080;48.528;8.078;2022-12-20T04:13:42;0.70;;;0.70;;
10082;SDS011;5080;48.528;8.078;2022-12-20T04:16:09;0.80;;;0.80;;
10082;SDS011;5080;48.528;8.078;2022-12-20T04:18:36;0.60;;;0.60;;
10082;SDS011;5080;48.528;8.078;2022-12-20T04:21:03;0.60;;;0.60;;
10082;SDS011;5080;48.528;8.078;2022-12-20T04:23:31;0.70;;;0.70;;
10082;SDS011;5080;48.528;8.078;2022-12-20T04:25:59;0.60;;;0.60;;
10082;SDS011;5080;48.528;8.078;2022-12-20T04:28:28;0.60;;;0.60;;
10082;SDS011;5080;48.528;8.078;2022-12-20T04:30:55;0.50;;;0.50;;
10082;SDS011;5080;48.528;8.078;2022-12-20T04:33:23;0.60;;;0.60;;
10082;SDS011;5080;48.528;8.078;2022-12-20T04:35:50;0.60;;;0.60;;
10082;SDS011;5080;48.528;8.078;2022-12-20T04:38:17;0.70;;;0.70;;
10082;SDS011;5080;48.528;8.078;2022-12-20T04:40:44;0.70;;;0.70;;
10082;SDS011;5080;48.528;8.078;2022-12-20T04:43:13;0.70;;;0.70;;
10082;SDS011;5080;48.528;8.078;2022-12-20T04:45:41;0.63;;;0.63;;
10082;SDS011;5080;48.528;8.078;2022-12-20T04:48:09;0.67;;;0.67;;
10082;SDS011;5080;48.528;8.078;2022-12-20T04:50:36;0.60;;;0.60;;
10082;SDS011;5080;48.528;8.078;2022-12-20T04:53:02;0.57;;;0.57;;
10082;SDS011;5080;48.528;8.078;2022-12-20T04:55:47;0.90;;;0.90;;
10082;SDS011;5080;48.528;8.078;2022-12-20T04:58:14;0.73;;;0.73;;
10082;SDS011;5080;48.528;8.078;2022-12-20T05:00:42;0.60;;;0.60;;
10082;SDS011;5080;48.528;8.078;2022-12-20T05:03:09;0.90;;;0.90;;
10082;SDS011;5080;48.528;8.078;2022-12-20T05:05:36;1.30;;;1.07;;
10082;SDS011;5080;48.528;8.078;2022-12-20T05:08:03;0.87;;;0.87;;
10082;SDS011;5080;48.528;8.078;2022-12-20T05:10:30;0.80;;;0.80;;
10082;SDS011;5080;48.528;8.078;2022-12-20T05:12:57;0.70;;;0.70;;
10082;SDS011;5080;48.528;8.078;2022-12-20T05:15:24;0.70;;;0.70;;
10082;SDS011;5080;48.528;8.078;2022-12-20T05:17:52;0.80;;;0.80;;
10082;SDS011;5080;48.528;8.078;2022-12-20T05:20:24;0.60;;;0.60;;
10082;SDS011;5080;48.528;8.078;2022-12-20T05:22:51;0.77;;;0.77;;
10082;SDS011;5080;48.528;8.078;2022-12-20T05:25:37;0.50;;;0.50;;
10082;SDS011;5080;48.528;8.078;2022-12-20T05:28:21;0.70;;;0.70;;
10082;SDS011;5080;48.528;8.078;2022-12-20T05:30:48;0.80;;;0.80;;
10082;SDS011;5080;48.528;8.078;2022-12-20T05:33:16;0.70;;;0.70;;
10082;SDS011;5080;48.528;8.078;2022-12-20T05:35:43;0.70;;;0.70;;
10082;SDS011;5080;48.528;8.078;2022-12-20T05:38:10;0.57;;;0.57;;
10082;SDS011;5080;48.528;8.078;2022-12-20T05:40:37;0.90;;;0.90;;
10082;SDS011;5080;48.528;8.078;2022-12-20T05:43:05;0.80;;;0.80;;
10082;SDS011;5080;48.528;8.078;2022-12-20T05:45:32;0.70;;;0.70;;
10082;SDS011;5080;48.528;8.078;2022-12-20T05:48:00;0.73;;;0.73;;
10082;SDS011;5080;48.528;8.078;2022-12-20T05:50:28;0.67;;;0.67;;
10082;SDS011;5080;48.528;8.078;2022-12-20T05:52:55;0.60;;;0.60;;
10082;SDS011;5080;48.528;8.078;2022-12-20T05:55:22;0.70;;;0.70;;
10082;SDS011;5080;48.528;8.078;2022-12-20T05:57:49;0.73;;;0.73;;
10082;SDS011;5080;48.528;8.078;2022-12-20T06:00:16;0.70;;;0.70;;
10082;SDS011;5080;48.528;8.078;2022-12-20T06:02:43;0.80;;;0.80;;
10082;SDS011;5080;48.528;8.078;2022-12-20T06:05:09;0.87;;;0.87;;
10082;SDS011;5080;48.528;8.078;2022-12-20T06:07:37;0.80;;;0.80;;
10082;SDS011;5080;48.528;8.078;2022-12-20T06:10:05;0.90;;;0.90;;
10082;SDS011;5080;48.528;8.078;2022-12-20T06:12:33;0.80;;;0.80;;
10082;SDS011;5080;48.528;8.078;2022-12-20T06:15:00;1.43;;;1.00;;
10082;SDS011;5080;48.528;8.078;2022-12-20T06:17:27;0.70;;;0.70;;
10082;SDS011;5080;48.528;8.078;2022-12-20T06:19:53;1.00;;;1.00;;
10082;SDS011;5080;48.528;8.078;2022-12-20T06:22:21;1.00;;;1.00;;
10082;SDS011;5080;48.528;8.078;2022-12-20T06:24:49;0.90;;;0.90;;
10082;SDS011;5080;48.528;8.078;2022-12-20T06:27:16;0.77;;;0.77;;
10082;SDS011;5080;48.528;8.078;2022-12-20T06:29:45;1.13;;;0.93;;
10082;SDS011;5080;48.528;8.078;2022-12-20T06:32:16;0.67;;;0.67;;
10082;SDS011;5080;48.528;8.078;2022-12-20T06:34:43;0.80;;;0.80;;
10082;SDS011;5080;48.528;8.078;2022-12-20T06:37:10;0.83;;;0.83;;
10082;SDS011;5080;48.528;8.078;2022-12-20T06:39:37;1.10;;;1.10;;
10082;SDS011;5080;48.528;8.078;2022-12-20T06:42:05;0.77;;;0.77;;
10082;SDS011;5080;48.528;8.078;2022-12-20T06:44:32;0.80;;;0.80;;
10082;SDS011;5080;48.528;8.078;2022-12-20T06:46:58;0.80;;;0.80;;
10082;SDS011;5080;48.528;8.078;2022-12-20T06:49:25;1.00;;;1.00;;
10082;SDS011;5080;48.528;8.078;2022-12-20T06:51:52;0.77;;;0.77;;
10082;SDS011;5080;48.528;8.078;2022-12-20T06:54:19;1.00;;;1.00;;
10082;SDS011;5080;48.528;8.078;2022-12-20T06:56:46;0.80;;;0.80;;
10082;SDS011;5080;48.528;8.078;2022-12-20T06:59:14;0.80;;;0.80;;
10082;SDS011;5080;48.528;8.078;2022-12-20T07:01:41;0.97;;;0.97;;
10082;SDS011;5080;48.528;8.078;2022-12-20T07:04:08;0.90;;;0.90;;
10082;SDS011;5080;48.528;8.078;2022-12-20T07:06:35;1.00;;;1.00;;
10082;SDS011;5080;48.528;8.078;2022-12-20T07:09:02;0.90;;;0.90;;
10082;SDS011;5080;48.528;8.078;2022-12-20T07:11:29;1.00;;;1.00;;
10082;SDS011;5080;48.528;8.078;2022-12-20T07:13:56;0.87;;;0.87;;
10082;SDS011;5080;48.528;8.078;2022-12-20T07:16:25;1.00;;;1.00;;
10082;SDS011;5080;48.528;8.078;2022-12-20T07:18:52;1.13;;;1.10;;
10082;SDS011;5080;48.528;8.078;2022-12-20T07:21:19;1.40;;;1.30;;
10082;SDS011;5080;48.528;8.078;2022-12-20T07:23:46;1.83;;;1.03;;
10082;SDS011;5080;48.528;8.078;2022-12-20T07:26:13;1.20;;;1.20;;
10082;SDS011;5080;48.528;8.078;2022-12-20T07:28:41;1.00;;;0.97;;
10082;SDS011;5080;48.528;8.078;2022-12-20T07:31:08;0.90;;;0.90;;
10082;SDS011;5080;48.528;8.078;2022-12-20T07:33:37;1.10;;;1.10;;
10082;SDS011;5080;48.528;8.078;2022-12-20T07:36:04;0.90;;;0.90;;
10082;SDS011;5080;48.528;8.078;2022-12-20T07:38:33;1.10;;;1.10;;
10082;SDS011;5080;48.528;8.078;2022-12-20T07:41:00;1.50;;;1.00;;
10082;SDS011;5080;48.528;8.078;2022-12-20T07:43:32;0.90;;;0.90;;
10082;SDS011;5080;48.528;8.078;2022-12-20T07:45:59;1.10;;;1.10;;
10082;SDS011;5080;48.528;8.078;2022-12-20T07:48:26;1.40;;;1.30;;
10082;SDS011;5080;48.528;8.078;2022-12-20T07:50:55;1.07;;;1.07;;
10082;SDS011;5080;48.528;8.078;2022-12-20T07:53:26;1.00;;;1.00;;
10082;SDS011;5080;48.528;8.078;2022-12-20T07:55:56;0.90;;;0.90;;
10082;SDS011;5080;48.528;8.078;2022-12-20T07:58:24;0.80;;;0.80;;
10082;SDS011;5080;48.528;8.078;2022-12-20T08:00:52;1.10;;;1.10;;
10082;SDS011;5080;48.528;8.078;2022-12-20T08:03:19;1.07;;;1.03;;
10082;SDS011;5080;48.528;8.078;2022-12-20T08:05:49;1.00;;;1.00;;
10082;SDS011;5080;48.528;8.078;2022-12-20T08:08:20;1.33;;;1.23;;
10082;SDS011;5080;48.528;8.078;2022-12-20T08:10:47;1.23;;;1.23;;
10082;SDS011;5080;48.528;8.078;2022-12-20T08:13:14;1.17;;;1.17;;
10082;SDS011;5080;48.528;8.078;2022-12-20T08:15:42;0.97;;;0.97;;
10082;SDS011;5080;48.528;8.078;2022-12-20T08:18:09;1.00;;;1.00;;
10082;SDS011;5080;48.528;8.078;2022-12-20T08:20:35;0.80;;;0.80;;
10082;SDS011;5080;48.528;8.078;2022-12-20T08:23:02;1.30;;;1.10;;
10082;SDS011;5080;48.528;8.078;2022-12-20T08:25:31;1.00;;;1.00;;
10082;SDS011;5080;48.528;8.078;2022-12-20T08:27:59;1.00;;;1.00;;
10082;SDS011;5080;48.528;8.078;2022-12-20T08:30:28;0.83;;;0.83;;
10082;SDS011;5080;48.528;8.078;2022-12-20T08:32:55;0.90;;;0.90;;
10082;SDS011;5080;48.528;8.078;2022-12-20T08:35:22;1.00;;;1.00;;
10082;SDS011;5080;48.528;8.078;2022-12-20T08:37:50;1.73;;;1.20;;
10082;SDS011;5080;48.528;8.078;2022-12-20T08:40:17;1.10;;;1.10;;
10082;SDS011;5080;48.528;8.078;2022-12-20T08:42:46;1.00;;;1.00;;
10082;SDS011;5080;48.528;8.078;2022-12-20T08:45:13;1.30;;;1.30;;
10082;SDS011;5080;48.528;8.078;2022-12-20T08:47:40;1.20;;;1.20;;
10082;SDS011;5080;48.528;8.078;2022-12-20T08:50:08;1.33;;;1.23;;
10082;SDS011;5080;48.528;8.078;2022-12-20T08:52:35;1.20;;;1.10;;
10082;SDS011;5080;48.528;8.078;2022-12-20T08:55:02;1.43;;;1.40;;
10082;SDS011;5080;48.528;8.078;2022-12-20T08:57:29;1.33;;;1.30;;
10082;SDS011;5080;48.528;8.078;2022-12-20T08:59:57;1.47;;;1.37;;
10082;SDS011;5080;48.528;8.078;2022-12-20T09:02:25;1.47;;;1.37;;
10082;SDS011;5080;48.528;8.078;2022-12-20T09:04:51;1.10;;;1.10;;
10082;SDS011;5080;48.528;8.078;2022-12-20T09:07:18;1.27;;;1.27;;
10082;SDS011;5080;48.528;8.078;2022-12-20T09:09:45;1.40;;;1.30;;
10082;SDS011;5080;48.528;8.078;2022-12-20T09:12:12;1.07;;;1.07;;
10082;SDS011;5080;48.528;8.078;2022-12-20T09:14:39;2.23;;;1.10;;
10082;SDS011;5080;48.528;8.078;2022-12-20T09:17:08;1.50;;;1.40;;
10082;SDS011;5080;48.528;8.078;2022-12-20T09:19:35;1.43;;;1.43;;
10082;SDS011;5080;48.528;8.078;2022-12-20T09:22:02;1.50;;;1.40;;
10082;SDS011;5080;48.528;8.078;2022-12-20T09:24:29;1.73;;;1.63;;
10082;SDS011;5080;48.528;8.078;2022-12-20T09:26:56;1.43;;;1.43;;
10082;SDS011;5080;48.528;8.078;2022-12-20T09:29:22;1.57;;;1.50;;
10082;SDS011;5080;48.528;8.078;2022-12-20T09:31:49;1.83;;;1.63;;
10082;SDS011;5080;48.528;8.078;2022-12-20T09:34:17;1.70;;;1.60;;
10082;SDS011;5080;48.528;8.078;2022-12-20T09:36:44;1.60;;;1.50;;
10082;SDS011;5080;48.528;8.078;2022-12-20T09:39:11;1.10;;;1.10;;
10082;SDS011;5080;48.528;8.078;2022-12-20T09:41:38;1.10;;;1.10;;
10082;SDS011;5080;48.528;8.078;2022-12-20T09:44:10;1.20;;;1.10;;
10082;SDS011;5080;48.528;8.078;2022-12-20T09:46:39;1.10;;;1.10;;
10082;SDS011;5080;48.528;8.078;2022-12-20T09:49:09;1.10;;;1.10;;
10082;SDS011;5080;48.528;8.078;2022-12-20T09:54:49;1.27;;;1.23;;
10082;SDS011;5080;48.528;8.078;2022-12-20T09:57:23;1.00;;;1.00;;
10082;SDS011;5080;48.528;8.078;2022-12-20T09:59:55;1.00;;;1.00;;
10082;SDS011;5080;48.528;8.078;2022-12-20T10:02:23;1.37;;;1.27;;
10082;SDS011;5080;48.528;8.078;2022-12-20T10:04:51;1.20;;;1.13;;
10082;SDS011;5080;48.528;8.078;2022-12-20T10:07:21;1.00;;;1.00;;
10082;SDS011;5080;48.528;8.078;2022-12-20T10:10:06;1.20;;;1.20;;
10082;SDS011;5080;48.528;8.078;2022-12-20T10:12:47;1.13;;;1.13;;
10082;SDS011;5080;48.528;8.078;2022-12-20T10:15:25;1.30;;;1.30;;
10082;SDS011;5080;48.528;8.078;2022-12-20T10:18:02;1.10;;;1.10;;
10082;SDS011;5080;48.528;8.078;2022-12-20T10:20:48;1.37;;;1.27;;
10082;SDS011;5080;48.528;8.078;2022-12-20T10:23:24;2.40;;;1.30;;
10082;SDS011;5080;48.528;8.078;2022-12-20T10:25:57;1.10;;;1.10;;
10082;SDS011;5080;48.528;8.078;2022-12-20T10:28:25;1.30;;;1.20;;
10082;SDS011;5080;48.528;8.078;2022-12-20T10:30:55;1.20;;;1.10;;
10082;SDS011;5080;48.528;8.078;2022-12-20T10:33:24;1.10;;;1.10;;
10082;SDS011;5080;48.528;8.078;2022-12-20T10:35:53;1.47;;;1.37;;
10082;SDS011;5080;48.528;8.078;2022-12-20T10:38:20;1.13;;;1.13;;
10082;SDS011;5080;48.528;8.078;2022-12-20T10:40:57;1.23;;;1.20;;
10082;SDS011;5080;48.528;8.078;2022-12-20T10:43:27;1.30;;;1.20;;
10082;SDS011;5080;48.528;8.078;2022-12-20T10:46:03;0.90;;;0.90;;
10082;SDS011;5080;48.528;8.078;2022-12-20T10:48:33;1.07;;;1.07;;
10082;SDS011;5080;48.528;8.078;2022-12-20T10:51:03;0.90;;;0.90;;
10082;SDS011;5080;48.528;8.078;2022-12-20T10:53:48;1.00;;;1.00;;
10082;SDS011;5080;48.528;8.078;2022-12-20T10:56:22;1.20;;;1.20;;
10082;SDS011;5080;48.528;8.078;2022-12-20T10:58:52;1.17;;;1.17;;
10082;SDS011;5080;48.528;8.078;2022-12-20T11:01:21;1.17;;;1.17;;
10082;SDS011;5080;48.528;8.078;2022-12-20T11:03:55;1.17;;;1.10;;
10082;SDS011;5080;48.528;8.078;2022-12-20T11:06:25;1.37;;;1.27;;
10082;SDS011;5080;48.528;8.078;2022-12-20T11:09:04;0.87;;;0.87;;
10082;SDS011;5080;48.528;8.078;2022-12-20T11:11:57;1.00;;;1.00;;
10082;SDS011;5080;48.528;8.078;2022-12-20T11:14:25;1.10;;;1.10;;
10082;SDS011;5080;48.528;8.078;2022-12-20T11:16:52;1.00;;;1.00;;
10082;SDS011;5080;48.528;8.078;2022-12-20T11:22:22;1.30;;;1.20;;
10082;SDS011;5080;48.528;8.078;2022-12-20T11:24:59;1.00;;;1.00;;
10082;SDS011;5080;48.528;8.078;2022-12-20T11:27:39;1.00;;;1.00;;
10082;SDS011;5080;48.528;8.078;2022-12-20T11:30:13;1.10;;;1.10;;
10082;SDS011;5080;48.528;8.078;2022-12-20T11:32:52;1.10;;;1.10;;
10082;SDS011;5080;48.528;8.078;2022-12-20T11:35:46;1.17;;;1.17;;
10082;SDS011;5080;48.528;8.078;2022-12-20T11:38:22;1.00;;;1.00;;
10082;SDS011;5080;48.528;8.078;2022-12-20T11:41:02;1.03;;;1.00;;
10082;SDS011;5080;48.528;8.078;2022-12-20T11:43:48;1.27;;;1.27;;
10082;SDS011;5080;48.528;8.078;2022-12-20T11:46:27;1.10;;;1.10;;
10082;SDS011;5080;48.528;8.078;2022-12-20T11:49:17;1.10;;;1.10;;
10082;SDS011;5080;48.528;8.078;2022-12-20T11:51:58;1.10;;;1.10;;
10082;SDS011;5080;48.528;8.078;2022-12-20T11:54:31;1.17;;;1.07;;
10082;SDS011;5080;48.528;8.078;2022-12-20T11:57:03;1.20;;;1.20;;
10082;SDS011;5080;48.528;8.078;2022-12-20T11:59:36;1.07;;;1.07;;
10082;SDS011;5080;48.528;8.078;2022-12-20T12:02:08;1.10;;;1.10;;
10082;SDS011;5080;48.528;8.078;2022-12-20T12:04:39;1.40;;;1.30;;
10082;SDS011;5080;48.528;8.078;2022-12-20T12:07:10;1.20;;;1.20;;
10082;SDS011;5080;48.528;8.078;2022-12-20T12:09:44;1.10;;;1.10;;
10082;SDS011;5080;48.528;8.078;2022-12-20T12:12:17;1.10;;;1.10;;
10082;SDS011;5080;48.528;8.078;2022-12-20T12:14:51;1.40;;;1.30;;
10082;SDS011;5080;48.528;8.078;2022-12-20T12:17:25;1.40;;;1.30;;
10082;SDS011;5080;48.528;8.078;2022-12-20T12:19:59;1.27;;;1.20;;
10082;SDS011;5080;48.528;8.078;2022-12-20T12:22:40;1.03;;;0.80;;
10082;SDS011;5080;48.528;8.078;2022-12-20T12:25:10;0.90;;;0.90;;
10082;SDS011;5080;48.528;8.078;2022-12-20T12:27:40;0.97;;;0.97;;
10082;SDS011;5080;48.528;8.078;2022-12-20T12:30:12;1.30;;;1.30;;
10082;SDS011;5080;48.528;8.078;2022-12-20T12:32:40;3.03;;;1.17;;
10082;SDS011;5080;48.528;8.078;2022-12-20T12:38:14;0.97;;;0.97;;
10082;SDS011;5080;48.528;8.078;2022-12-20T12:40:56;1.20;;;1.20;;
10082;SDS011;5080;48.528;8.078;2022-12-20T12:43:44;1.83;;;1.33;;
10082;SDS011;5080;48.528;8.078;2022-12-20T12:46:16;1.33;;;1.23;;
10082;SDS011;5080;48.528;8.078;2022-12-20T12:48:49;1.10;;;1.10;;
10082;SDS011;5080;48.528;8.078;2022-12-20T12:51:21;1.50;;;1.40;;
10082;SDS011;5080;48.528;8.078;2022-12-20T12:53:53;1.13;;;1.03;;
10082;SDS011;5080;48.528;8.078;2022-12-20T12:56:36;1.03;;;1.03;;
10082;SDS011;5080;48.528;8.078;2022-12-20T12:59:20;1.30;;;1.30;;
10082;SDS011;5080;48.528;8.078;2022-12-20T13:04:52;1.10;;;1.10;;
10082;SDS011;5080;48.528;8.078;2022-12-20T13:07:27;1.20;;;1.20;;
10082;SDS011;5080;48.528;8.078;2022-12-20T13:13:11;0.97;;;0.97;;
10082;SDS011;5080;48.528;8.078;2022-12-20T13:15:57;1.00;;;1.00;;
10082;SDS011;5080;48.528;8.078;2022-12-20T13:18:35;0.90;;;0.90;;
10082;SDS011;5080;48.528;8.078;2022-12-20T13:27:13;0.87;;;0.87;;
10082;SDS011;5080;48.528;8.078;2022-12-20T13:29:55;1.00;;;1.00;;
10082;SDS011;5080;48.528;8.078;2022-12-20T13:35:55;1.57;;;1.03;;
10082;SDS011;5080;48.528;8.078;2022-12-20T13:41:20;1.10;;;1.00;;
10082;SDS011;5080;48.528;8.078;2022-12-20T13:44:08;1.00;;;1.00;;
10082;SDS011;5080;48.528;8.078;2022-12-20T13:47:27;1.00;;;0.97;;
10082;SDS011;5080;48.528;8.078;2022-12-20T13:50:00;1.10;;;1.10;;
10082;SDS011;5080;48.528;8.078;2022-12-20T13:52:48;0.80;;;0.80;;
10082;SDS011;5080;48.528;8.078;2022-12-20T13:55:16;0.83;;;0.83;;
10082;SDS011;5080;48.528;8.078;2022-12-20T13:57:55;1.00;;;1.00;;
10082;SDS011;5080;48.528;8.078;2022-12-20T14:00:28;0.90;;;0.90;;
10082;SDS011;5080;48.528;8.078;2022-12-20T14:02:55;0.80;;;0.80;;
10082;SDS011;5080;48.528;8.078;2022-12-20T14:05:22;0.80;;;0.80;;
10082;SDS011;5080;48.528;8.078;2022-12-20T14:07:55;0.97;;;0.97;;
10082;SDS011;5080;48.528;8.078;2022-12-20T14:10:25;0.90;;;0.90;;
10082;SDS011;5080;48.528;8.078;2022-12-20T14:12:56;0.90;;;0.90;;
10082;SDS011;5080;48.528;8.078;2022-12-20T14:15:25;1.00;;;1.00;;
10082;SDS011;5080;48.528;8.078;2022-12-20T14:17:54;0.93;;;0.93;;
10082;SDS011;5080;48.528;8.078;2022-12-20T14:20:22;0.83;;;0.83;;
10082;SDS011;5080;48.528;8.078;2022-12-20T14:22:56;0.90;;;0.80;;
10082;SDS011;5080;48.528;8.078;2022-12-20T14:25:30;0.77;;;0.77;;
10082;SDS011;5080;48.528;8.078;2022-12-20T14:28:03;1.00;;;1.00;;
10082;SDS011;5080;48.528;8.078;2022-12-20T14:30:40;0.93;;;0.93;;
10082;SDS011;5080;48.528;8.078;2022-12-20T14:33:15;0.70;;;0.70;;
10082;SDS011;5080;48.528;8.078;2022-12-20T14:35:46;0.90;;;0.90;;
10082;SDS011;5080;48.528;8.078;2022-12-20T14:38:20;1.03;;;1.00;;
10082;SDS011;5080;48.528;8.078;2022-12-20T14:40:48;1.10;;;1.10;;
10082;SDS011;5080;48.528;8.078;2022-12-20T14:43:15;1.33;;;1.23;;
10082;SDS011;5080;48.528;8.078;2022-12-20T14:45:49;1.23;;;1.13;;
10082;SDS011;5080;48.528;8.078;2022-12-20T14:48:33;1.20;;;1.20;;
10082;SDS011;5080;48.528;8.078;2022-12-20T14:51:03;1.20;;;1.10;;
10082;SDS011;5080;48.528;8.078;2022-12-20T14:53:31;1.00;;;1.00;;
10082;SDS011;5080;48.528;8.078;2022-12-20T14:55:59;1.03;;;1.03;;
10082;SDS011;5080;48.528;8.078;2022-12-20T14:58:27;1.03;;;1.03;;
10082;SDS011;5080;48.528;8.078;2022-12-20T15:00:56;1.13;;;1.03;;
10082;SDS011;5080;48.528;8.078;2022-12-20T15:03:25;0.90;;;0.90;;
10082;SDS011;5080;48.528;8.078;2022-12-20T15:05:52;1.10;;;1.00;;
10082;SDS011;5080;48.528;8.078;2022-12-20T15:08:22;1.00;;;1.00;;
10082;SDS011;5080;48.528;8.078;2022-12-20T15:10:54;0.90;;;0.90;;
10082;SDS011;5080;48.528;8.078;2022-12-20T15:13:24;1.17;;;1.17;;
10082;SDS011;5080;48.528;8.078;2022-12-20T15:15:54;1.07;;;1.07;;
10082;SDS011;5080;48.528;8.078;2022-12-20T15:18:24;0.90;;;0.90;;
10082;SDS011;5080;48.528;8.078;2022-12-20T15:20:53;0.97;;;0.97;;
10082;SDS011;5080;48.528;8.078;2022-12-20T15:23:26;1.07;;;1.07;;
10082;SDS011;5080;48.528;8.078;2022-12-20T15:25:55;0.90;;;0.90;;
10082;SDS011;5080;48.528;8.078;2022-12-20T15:28:23;0.90;;;0.90;;
10082;SDS011;5080;48.528;8.078;2022-12-20T15:30:51;1.00;;;1.00;;
10082;SDS011;5080;48.528;8.078;2022-12-20T15:33:20;1.00;;;1.00;;
10082;SDS011;5080;48.528;8.078;2022-12-20T15:35:48;1.20;;;1.10;;
10082;SDS011;5080;48.528;8.078;2022-12-20T15:38:17;1.17;;;1.17;;
10082;SDS011;5080;48.528;8.078;2022-12-20T15:40:45;1.40;;;1.30;;
10082;SDS011;5080;48.528;8.078;2022-12-20T15:43:17;1.40;;;1.40;;
10082;SDS011;5080;48.528;8.078;2022-12-20T15:45:47;1.50;;;1.47;;
10082;SDS011;5080;48.528;8.078;2022-12-20T15:48:17;1.53;;;1.43;;
10082;SDS011;5080;48.528;8.078;2022-12-20T15:50:47;1.20;;;1.20;;
10082;SDS011;5080;48.528;8.078;2022-12-20T15:53:16;1.47;;;1.40;;